Time;durP1;ratioP1;P1;durP2;ratioP2;P2;SDS_P1;SDS_P2;PMS_P1;PMS_P2;Temp;Humidity;BMP_temperature;BMP_pressure;BME280_temperature;BME280_humidity;BME280_pressure;Samples;Min_cycle;Max_cycle;Signal;HPM_P1;HPM_P2
2023/07/04 00:01:01;;;;;;;0.20;0.20;;;12.80;99.90;;;;;;5038040;28;20033;-81
2023/07/04 00:03:28;;;;;;;0.10;0.10;;;12.80;99.90;;;;;;5030174;28;20439;-81
2023/07/04 00:05:55;;;;;;;0.10;0.10;;;12.80;99.90;;;;;;5030828;28;20041;-81
2023/07/04 00:08:22;;;;;;;0.20;0.20;;;12.70;99.90;;;;;;5033450;28;20045;-81
2023/07/04 00:10:50;;;;;;;0.20;0.20;;;12.70;99.90;;;;;;5033557;28;20483;-81
2023/07/04 00:13:19;;;;;;;0.20;0.20;;;12.70;99.90;;;;;;5047095;28;20048;-81
2023/07/04 00:15:51;;;;;;;0.10;0.10;;;12.70;99.90;;;;;;5034116;28;20135;-83
2023/07/04 00:18:21;;;;;;;0.17;0.17;;;12.70;99.90;;;;;;5034177;28;20508;-80
2023/07/04 00:20:54;;;;;;;0.20;0.20;;;12.70;99.90;;;;;;5035155;28;20044;-80
2023/07/04 00:23:26;;;;;;;0.20;0.20;;;12.70;99.90;;;;;;5031965;28;20075;-80
2023/07/04 00:25:53;;;;;;;0.13;0.13;;;12.70;99.90;;;;;;5030732;28;20052;-80
2023/07/04 00:28:23;;;;;;;0.17;0.17;;;12.70;99.90;;;;;;5032687;28;20053;-80
2023/07/04 00:30:53;;;;;;;0.10;0.10;;;12.70;99.90;;;;;;5037417;28;20112;-81
2023/07/04 00:33:24;;;;;;;0.20;0.20;;;12.60;99.90;;;;;;5047416;28;20048;-81
2023/07/04 00:36:05;;;;;;;0.10;0.10;;;12.50;99.90;;;;;;5052745;28;20390;-80
2023/07/04 00:38:32;;;;;;;0.20;0.20;;;12.60;99.90;;;;;;5051198;28;20101;-80
2023/07/04 00:41:14;;;;;;;0.10;0.10;;;12.60;99.90;;;;;;5049497;28;20120;-81
2023/07/04 00:44:00;;;;;;;0.10;0.10;;;12.60;99.90;;;;;;5049204;28;20167;-81
2023/07/04 00:46:37;;;;;;;0.20;0.20;;;12.60;99.90;;;;;;5040463;28;20090;-81
2023/07/04 00:49:06;;;;;;;0.20;0.20;;;12.60;99.90;;;;;;5050791;28;20037;-80
2023/07/04 00:51:34;;;;;;;0.10;0.10;;;12.60;99.90;;;;;;5050417;28;20191;-81
2023/07/04 00:54:00;;;;;;;0.10;0.10;;;12.60;99.90;;;;;;5050569;28;20404;-80
2023/07/04 00:56:28;;;;;;;0.10;0.10;;;12.60;99.90;;;;;;5048946;28;20053;-81
2023/07/04 00:58:59;;;;;;;0.10;0.10;;;12.60;99.90;;;;;;5049027;28;20048;-81
2023/07/04 01:01:26;;;;;;;0.10;0.10;;;12.60;99.90;;;;;;5047351;28;20175;-81
2023/07/04 01:03:53;;;;;;;0.10;0.10;;;12.60;99.90;;;;;;5049291;28;20520;-81
2023/07/04 01:06:30;;;;;;;0.13;0.13;;;12.60;99.90;;;;;;5048031;28;20048;-80
2023/07/04 01:09:01;;;;;;;0.20;0.20;;;12.60;99.90;;;;;;5040217;28;20116;-81
2023/07/04 01:11:32;;;;;;;0.20;0.20;;;12.60;99.90;;;;;;5050908;28;20033;-80
2023/07/04 01:13:58;;;;;;;0.20;0.20;;;12.60;99.90;;;;;;5048266;28;20060;-81
2023/07/04 01:16:25;;;;;;;0.10;0.10;;;12.60;99.90;;;;;;5050160;28;20051;-81
2023/07/04 01:18:54;;;;;;;0.20;0.20;;;12.60;99.90;;;;;;5048236;28;20509;-80
2023/07/04 01:21:25;;;;;;;0.10;0.10;;;12.60;99.90;;;;;;5048646;28;20045;-80
2023/07/04 01:23:57;;;;;;;0.10;0.10;;;12.60;99.90;;;;;;5048026;28;20043;-81
2023/07/04 01:26:22;;;;;;;0.20;0.20;;;12.60;99.90;;;;;;5050658;28;20049;-80
2023/07/04 01:28:53;;;;;;;0.10;0.10;;;12.60;99.90;;;;;;5049142;28;20056;-80
2023/07/04 01:31:25;;;;;;;0.10;0.10;;;12.60;99.90;;;;;;5049006;28;20061;-82
2023/07/04 01:33:51;;;;;;;0.20;0.20;;;12.60;99.90;;;;;;5032093;28;20053;-81
2023/07/04 01:36:20;;;;;;;0.10;0.10;;;12.60;99.90;;;;;;5047054;28;20029;-80
2023/07/04 01:38:46;;;;;;;0.20;0.20;;;12.60;99.90;;;;;;5030582;28;20091;-80
2023/07/04 01:41:12;;;;;;;0.17;0.17;;;12.60;99.90;;;;;;5050000;28;20140;-81
2023/07/04 01:43:39;;;;;;;0.10;0.10;;;12.60;99.90;;;;;;5044738;28;20048;-81
2023/07/04 01:46:04;;;;;;;0.10;0.10;;;12.70;99.90;;;;;;5047438;28;20448;-82
2023/07/04 01:48:31;;;;;;;0.20;0.20;;;12.60;99.90;;;;;;5032096;28;20053;-81
2023/07/04 01:50:56;;;;;;;0.10;0.10;;;12.60;99.90;;;;;;5030549;28;20140;-81
2023/07/04 01:53:22;;;;;;;0.15;0.15;;;12.40;99.90;;;;;;5048515;28;20127;-82
2023/07/04 01:55:48;;;;;;;0.20;0.20;;;12.60;99.90;;;;;;5046096;28;20037;-80
2023/07/04 01:58:14;;;;;;;0.20;0.20;;;12.60;99.90;;;;;;5046455;28;20396;-80
2023/07/04 02:00:39;;;;;;;0.20;0.20;;;12.50;99.90;;;;;;5022309;28;20041;-79
2023/07/04 02:03:05;;;;;;;0.10;0.10;;;12.50;99.90;;;;;;5045180;28;20456;-81
2023/07/04 02:05:31;;;;;;;0.10;0.10;;;12.50;99.90;;;;;;5031720;28;20064;-80
2023/07/04 02:07:58;;;;;;;0.20;0.20;;;12.50;99.90;;;;;;5029820;28;20606;-81
2023/07/04 02:10:24;;;;;;;0.10;0.10;;;12.60;99.90;;;;;;5049543;28;20044;-81
2023/07/04 02:12:50;;;;;;;0.20;0.20;;;12.50;99.90;;;;;;5029374;28;20048;-81
2023/07/04 02:15:16;;;;;;;0.20;0.20;;;12.50;99.90;;;;;;5048801;28;20033;-79
2023/07/04 02:17:42;;;;;;;0.10;0.10;;;12.50;99.90;;;;;;5028813;28;20049;-80
2023/07/04 02:20:09;;;;;;;0.20;0.20;;;12.50;99.90;;;;;;5049079;28;20533;-81
2023/07/04 02:22:34;;;;;;;0.20;0.20;;;12.50;99.90;;;;;;5032401;28;20484;-81
2023/07/04 02:25:02;;;;;;;0.20;0.20;;;12.50;99.90;;;;;;5049302;28;20102;-80
2023/07/04 02:27:28;;;;;;;0.20;0.20;;;12.60;99.90;;;;;;5047272;28;20440;-81
2023/07/04 02:29:54;;;;;;;0.20;0.20;;;12.50;99.90;;;;;;5048630;28;20048;-80
2023/07/04 02:32:20;;;;;;;0.20;0.20;;;12.60;99.90;;;;;;5034907;28;20057;-82
2023/07/04 02:34:46;;;;;;;0.20;0.20;;;12.50;99.90;;;;;;5047332;28;20646;-81
2023/07/04 02:37:12;;;;;;;0.20;0.20;;;12.50;99.90;;;;;;5049153;28;20520;-80
2023/07/04 02:39:38;;;;;;;0.20;0.20;;;12.50;99.90;;;;;;5048179;28;20048;-81
2023/07/04 02:42:04;;;;;;;0.20;0.20;;;12.50;99.90;;;;;;5047309;28;20069;-81
2023/07/04 02:44:30;;;;;;;0.20;0.20;;;12.50;99.90;;;;;;5049792;28;20404;-81
2023/07/04 02:46:56;;;;;;;0.20;0.20;;;12.50;99.90;;;;;;5047659;28;20044;-81
2023/07/04 02:49:21;;;;;;;0.20;0.20;;;12.50;99.90;;;;;;5049913;28;20095;-81
2023/07/04 02:51:47;;;;;;;0.20;0.20;;;12.50;99.90;;;;;;5047841;28;20052;-81
2023/07/04 02:54:15;;;;;;;0.20;0.20;;;12.50;99.90;;;;;;5046002;28;20069;-81
2023/07/04 02:56:41;;;;;;;0.15;0.15;;;12.50;99.90;;;;;;5034870;28;20044;-80
2023/07/04 02:59:07;;;;;;;0.20;0.20;;;12.60;99.90;;;;;;5046197;28;20045;-82
2023/07/04 03:01:33;;;;;;;0.20;0.20;;;12.50;99.90;;;;;;5048415;28;20102;-81
2023/07/04 03:03:59;;;;;;;0.20;0.20;;;12.60;99.90;;;;;;5053923;28;20141;-81
2023/07/04 03:06:25;;;;;;;0.20;0.20;;;12.60;99.90;;;;;;5044137;28;20082;-80
2023/07/04 03:08:51;;;;;;;0.15;0.15;;;12.60;99.90;;;;;;5047219;28;20075;-80
2023/07/04 03:11:17;;;;;;;0.10;0.10;;;12.60;99.90;;;;;;5050844;28;20045;-81
2023/07/04 03:13:43;;;;;;;0.20;0.20;;;12.60;99.90;;;;;;5047591;28;20652;-80
2023/07/04 03:16:09;;;;;;;0.13;0.13;;;12.60;99.90;;;;;;5050010;28;20087;-80
2023/07/04 03:18:34;;;;;;;0.20;0.20;;;12.60;99.90;;;;;;5046911;28;20084;-80
2023/07/04 03:21:00;;;;;;;0.10;0.10;;;12.60;99.90;;;;;;5046513;28;20044;-80
2023/07/04 03:23:26;;;;;;;0.20;0.20;;;12.50;99.90;;;;;;5046553;28;20044;-80
2023/07/04 03:25:52;;;;;;;0.20;0.20;;;12.60;99.90;;;;;;5048136;28;20049;-80
2023/07/04 03:28:17;;;;;;;0.10;0.10;;;12.60;99.90;;;;;;5044214;28;20075;-80
2023/07/04 03:30:43;;;;;;;0.20;0.20;;;12.60;99.90;;;;;;5050021;28;20095;-80
2023/07/04 03:33:09;;;;;;;0.20;0.20;;;12.60;99.90;;;;;;5012875;28;20115;-80
2023/07/04 03:35:38;;;;;;;0.10;0.10;;;12.60;99.90;;;;;;5027394;28;21742;-80
2023/07/04 03:38:04;;;;;;;0.20;0.20;;;12.50;99.90;;;;;;5026822;28;20100;-81
2023/07/04 03:40:29;;;;;;;0.17;0.17;;;12.60;99.90;;;;;;5011221;28;20088;-81
2023/07/04 03:42:55;;;;;;;0.20;0.20;;;12.60;99.90;;;;;;5026737;28;20136;-80
2023/07/04 03:45:21;;;;;;;0.10;0.10;;;12.60;99.90;;;;;;5011657;28;20091;-80
2023/07/04 03:47:47;;;;;;;0.20;0.20;;;12.60;99.90;;;;;;5010355;28;20050;-80
2023/07/04 03:50:13;;;;;;;0.15;0.15;;;12.70;99.90;;;;;;5028082;28;20045;-81
2023/07/04 03:52:39;;;;;;;0.20;0.20;;;12.70;99.90;;;;;;5028039;28;20160;-80
2023/07/04 03:55:06;;;;;;;0.17;0.17;;;12.70;99.90;;;;;;5026255;28;20826;-80
2023/07/04 03:57:31;;;;;;;0.10;0.10;;;12.70;99.90;;;;;;5009091;28;20057;-81
2023/07/04 03:59:57;;;;;;;0.20;0.20;;;12.70;99.90;;;;;;5007917;28;20049;-81
2023/07/04 04:02:23;;;;;;;0.20;0.20;;;12.70;99.90;;;;;;5027373;28;20037;-81
2023/07/04 04:04:49;;;;;;;0.20;0.20;;;12.70;99.90;;;;;;5023528;28;20098;-82
2023/07/04 04:07:14;;;;;;;0.20;0.20;;;12.70;99.90;;;;;;5010550;28;20489;-81
2023/07/04 04:09:59;;;;;;;0.15;0.15;;;12.70;99.90;;;;;;5011213;28;20109;-81
2023/07/04 04:12:43;;;;;;;0.20;0.20;;;12.70;99.90;;;;;;5027463;28;20052;-81
2023/07/04 04:15:28;;;;;;;0.10;0.10;;;12.70;99.90;;;;;;5013781;28;20045;-81
2023/07/04 04:17:57;;;;;;;0.13;0.13;;;12.70;99.90;;;;;;5000911;28;20049;-81
2023/07/04 04:20:22;;;;;;;0.20;0.20;;;12.70;99.90;;;;;;5011668;28;20422;-81
2023/07/04 04:22:49;;;;;;;0.20;0.20;;;12.70;99.90;;;;;;5009355;28;20397;-81
2023/07/04 04:25:16;;;;;;;0.10;0.10;;;12.70;99.90;;;;;;5010911;28;20053;-81
2023/07/04 04:27:43;;;;;;;0.20;0.20;;;12.70;99.90;;;;;;5009240;28;20588;-82
2023/07/04 04:30:10;;;;;;;0.10;0.10;;;12.70;99.90;;;;;;5009530;28;20044;-81
2023/07/04 04:32:36;;;;;;;0.20;0.20;;;12.70;99.90;;;;;;5033863;28;20049;-79
2023/07/04 04:35:04;;;;;;;0.20;0.20;;;12.70;99.90;;;;;;5048168;28;20455;-80
2023/07/04 04:37:30;;;;;;;0.10;0.10;;;12.80;99.90;;;;;;5045976;28;20037;-81
2023/07/04 04:39:56;;;;;;;0.15;0.15;;;12.80;99.90;;;;;;5047535;28;20041;-81
2023/07/04 04:42:23;;;;;;;0.20;0.20;;;12.80;99.90;;;;;;5046435;28;20036;-80
2023/07/04 04:44:53;;;;;;;0.17;0.17;;;12.90;99.90;;;;;;5046418;28;20057;-81
2023/07/04 04:47:26;;;;;;;0.10;0.10;;;12.90;99.90;;;;;;5044602;28;20104;-80
2023/07/04 04:49:52;;;;;;;0.10;0.10;;;12.90;99.90;;;;;;5046923;28;20464;-80
2023/07/04 04:52:22;;;;;;;0.10;0.10;;;12.90;99.90;;;;;;5046764;28;20041;-81
2023/07/04 04:54:48;;;;;;;0.20;0.20;;;12.90;99.90;;;;;;5049832;28;20063;-82
2023/07/04 04:57:17;;;;;;;0.10;0.10;;;12.90;99.90;;;;;;5052202;28;20041;-81
2023/07/04 04:59:43;;;;;;;0.20;0.20;;;12.90;99.90;;;;;;5051802;28;20045;-81
2023/07/04 05:02:12;;;;;;;0.10;0.10;;;13.00;99.90;;;;;;5046503;28;20404;-81
2023/07/04 05:04:38;;;;;;;0.20;0.20;;;13.00;99.90;;;;;;5047403;28;20102;-81
2023/07/04 05:07:04;;;;;;;0.10;0.10;;;13.00;99.90;;;;;;5043749;28;20044;-81
2023/07/04 05:09:30;;;;;;;0.10;0.10;;;13.00;99.90;;;;;;5052002;28;20070;-82
2023/07/04 05:11:56;;;;;;;0.10;0.10;;;13.00;99.90;;;;;;5051218;28;20476;-81
2023/07/04 05:14:22;;;;;;;0.10;0.10;;;13.10;99.90;;;;;;5046034;28;20052;-81
2023/07/04 05:16:47;;;;;;;0.10;0.10;;;13.10;99.90;;;;;;5049082;28;20558;-81
2023/07/04 05:19:13;;;;;;;0.13;0.13;;;13.10;99.90;;;;;;5048712;28;20033;-81
2023/07/04 05:21:39;;;;;;;0.17;0.17;;;13.20;99.90;;;;;;5049739;28;20048;-80
2023/07/04 05:24:05;;;;;;;0.10;0.10;;;13.20;99.90;;;;;;5050062;28;20063;-81
2023/07/04 05:26:30;;;;;;;0.10;0.10;;;13.20;99.90;;;;;;5051328;28;20048;-80
2023/07/04 05:28:58;;;;;;;0.20;0.20;;;13.30;99.90;;;;;;5046380;28;20128;-80
2023/07/04 05:31:26;;;;;;;0.10;0.10;;;13.30;99.90;;;;;;5045167;28;20045;-81
2023/07/04 05:33:54;;;;;;;0.20;0.20;;;13.30;99.90;;;;;;5032292;28;20064;-80
2023/07/04 05:36:23;;;;;;;0.20;0.20;;;13.40;99.90;;;;;;5034623;28;20052;-80
2023/07/04 05:38:51;;;;;;;0.20;0.20;;;13.40;99.90;;;;;;5049844;28;20466;-80
2023/07/04 05:41:18;;;;;;;0.10;0.10;;;13.40;99.90;;;;;;5030444;28;20191;-79
2023/07/04 05:43:45;;;;;;;0.20;0.20;;;13.50;99.90;;;;;;5034619;28;20036;-81
2023/07/04 05:46:12;;;;;;;0.20;0.20;;;13.50;99.90;;;;;;5048280;28;20373;-81
2023/07/04 05:48:38;;;;;;;0.17;0.17;;;13.50;99.90;;;;;;5031957;28;20408;-80
2023/07/04 05:51:10;;;;;;;0.20;0.20;;;13.60;99.90;;;;;;5034374;28;20040;-80
2023/07/04 05:53:38;;;;;;;0.10;0.10;;;13.70;99.90;;;;;;5028908;28;20477;-80
2023/07/04 05:56:20;;;;;;;0.20;0.20;;;13.70;99.90;;;;;;5026237;28;20049;-80
2023/07/04 05:58:48;;;;;;;0.20;0.20;;;13.70;99.90;;;;;;5030582;28;20049;-80
2023/07/04 06:01:27;;;;;;;0.20;0.20;;;13.80;99.90;;;;;;5032853;28;20148;-81
2023/07/04 06:03:54;;;;;;;0.10;0.10;;;13.90;99.90;;;;;;5016361;28;20044;-80
2023/07/04 06:06:27;;;;;;;0.20;0.20;;;13.90;99.90;;;;;;5019311;28;20045;-80
2023/07/04 06:08:54;;;;;;;0.10;0.10;;;13.90;99.90;;;;;;5032095;28;20045;-81
2023/07/04 06:11:22;;;;;;;0.10;0.10;;;13.90;99.90;;;;;;5043692;28;20041;-80
2023/07/04 06:13:48;;;;;;;0.20;0.20;;;14.00;99.90;;;;;;5029838;28;20041;-79
2023/07/04 06:16:14;;;;;;;0.20;0.20;;;14.10;99.90;;;;;;5046378;28;20047;-80
2023/07/04 06:18:40;;;;;;;0.10;0.10;;;14.20;99.90;;;;;;5029877;28;20052;-80
2023/07/04 06:21:16;;;;;;;0.20;0.20;;;14.30;99.90;;;;;;5049708;28;20076;-80
2023/07/04 06:23:43;;;;;;;0.10;0.10;;;14.30;99.90;;;;;;5043217;28;20556;-80
2023/07/04 06:26:10;;;;;;;0.20;0.20;;;14.40;99.90;;;;;;5028989;28;20452;-80
2023/07/04 06:28:36;;;;;;;0.10;0.10;;;14.40;99.90;;;;;;5027103;28;20103;-80
2023/07/04 06:31:20;;;;;;;0.20;0.20;;;14.50;99.90;;;;;;5030365;28;20044;-80
2023/07/04 06:33:46;;;;;;;0.10;0.10;;;14.20;99.90;;;;;;5025198;28;20616;-80
2023/07/04 06:36:16;;;;;;;0.20;0.20;;;14.60;99.90;;;;;;5049679;28;20045;-81
2023/07/04 06:38:42;;;;;;;0.20;0.20;;;14.60;99.90;;;;;;5027154;28;20053;-81
2023/07/04 06:41:13;;;;;;;0.10;0.10;;;14.60;99.90;;;;;;5050536;28;20041;-80
2023/07/04 06:43:44;;;;;;;0.20;0.20;;;14.70;99.90;;;;;;5028188;28;20394;-80
2023/07/04 06:46:11;;;;;;;;;;;14.80;99.90;;;;;;5028977;28;20053;-81
2023/07/04 06:48:37;;;;;;;0.20;0.20;;;14.80;99.90;;;;;;5030486;28;19963;-79
2023/07/04 06:51:12;;;;;;;0.20;0.20;;;14.90;99.90;;;;;;5045704;28;20103;-79
2023/07/04 06:53:38;;;;;;;0.10;0.10;;;14.90;99.90;;;;;;5028715;28;20576;-79
2023/07/04 06:56:13;;;;;;;0.20;0.20;;;14.90;99.90;;;;;;5039659;28;20079;-79
2023/07/04 06:58:48;;;;;;;0.20;0.20;;;15.00;99.90;;;;;;5023786;28;20045;-80
2023/07/04 07:01:14;;;;;;;0.10;0.10;;;15.00;99.90;;;;;;5026472;28;20445;-80
2023/07/04 07:03:40;;;;;;;0.20;0.20;;;15.00;99.90;;;;;;5028336;28;20039;-80
2023/07/04 07:06:09;;;;;;;0.20;0.20;;;15.00;99.90;;;;;;5023645;28;20048;-80
2023/07/04 07:08:36;;;;;;;0.13;0.13;;;15.10;99.90;;;;;;5013056;28;20076;-80
2023/07/04 07:11:04;;;;;;;0.20;0.20;;;15.10;99.90;;;;;;5039051;28;20060;-79
2023/07/04 07:13:31;;;;;;;0.20;0.20;;;15.20;99.90;;;;;;5038408;28;20163;-80
2023/07/04 07:16:14;;;;;;;0.20;0.20;;;15.20;99.90;;;;;;5021290;28;20120;-80
2023/07/04 07:18:41;;;;;;;0.20;0.20;;;15.40;99.90;;;;;;5020556;28;20052;-80
2023/07/04 07:21:08;;;;;;;0.20;0.20;;;15.40;99.90;;;;;;5025477;28;20037;-79
2023/07/04 07:23:36;;;;;;;0.20;0.20;;;15.50;99.90;;;;;;5041456;28;20060;-80
2023/07/04 07:26:04;;;;;;;0.20;0.20;;;15.60;99.90;;;;;;5043898;28;20869;-80
2023/07/04 07:28:31;;;;;;;0.20;0.20;;;15.70;99.90;;;;;;5045248;28;20045;-79
2023/07/04 07:31:08;;;;;;;0.20;0.20;;;15.70;99.90;;;;;;5021600;28;20111;-80
2023/07/04 07:33:35;;;;;;;0.20;0.20;;;15.80;99.90;;;;;;5038274;28;20049;-78
2023/07/04 07:36:13;;;;;;;0.10;0.10;;;15.90;99.90;;;;;;5026198;28;20068;-78
2023/07/04 07:38:40;;;;;;;0.20;0.20;;;15.90;99.90;;;;;;5025369;28;20045;-79
2023/07/04 07:41:06;;;;;;;0.10;0.10;;;16.00;99.90;;;;;;5029925;28;20047;-78
2023/07/04 07:43:33;;;;;;;0.10;0.10;;;16.10;99.90;;;;;;5028314;28;20124;-79
2023/07/04 07:45:58;;;;;;;0.20;0.20;;;16.10;99.90;;;;;;5022761;28;20689;-79
2023/07/04 07:48:24;;;;;;;0.10;0.10;;;16.20;99.90;;;;;;5020148;28;20049;-80
2023/07/04 07:50:50;;;;;;;0.10;0.10;;;16.20;99.90;;;;;;5017602;28;20413;-80
2023/07/04 07:53:15;;;;;;;0.20;0.20;;;16.20;99.90;;;;;;5028921;28;20044;-79
2023/07/04 07:55:41;;;;;;;0.20;0.20;;;16.20;99.90;;;;;;5044954;28;20120;-79
2023/07/04 07:58:08;;;;;;;0.20;0.20;;;16.20;99.90;;;;;;5017540;28;20064;-78
2023/07/04 08:00:34;;;;;;;0.20;0.20;;;16.20;99.90;;;;;;5031562;28;20042;-78
2023/07/04 08:03:00;;;;;;;0.20;0.20;;;16.20;99.90;;;;;;5022208;28;20053;-78
2023/07/04 08:05:26;;;;;;;0.20;0.20;;;16.20;99.90;;;;;;5028593;28;20151;-78
2023/07/04 08:07:51;;;;;;;0.10;0.10;;;16.20;99.90;;;;;;5040230;28;20049;-78
2023/07/04 08:10:17;;;;;;;0.20;0.20;;;16.20;99.90;;;;;;5017926;28;20101;-78
2023/07/04 08:12:43;;;;;;;0.10;0.10;;;16.20;99.90;;;;;;5024082;28;20118;-79
2023/07/04 08:15:10;;;;;;;0.20;0.20;;;16.30;99.90;;;;;;5045841;28;20099;-78
2023/07/04 08:17:37;;;;;;;0.10;0.10;;;16.30;99.90;;;;;;5038681;28;20083;-79
2023/07/04 08:20:06;;;;;;;0.15;0.15;;;16.30;99.90;;;;;;5015584;28;20051;-80
2023/07/04 08:22:32;;;;;;;0.20;0.20;;;16.40;99.90;;;;;;5039054;28;20091;-80
2023/07/04 08:24:59;;;;;;;0.10;0.10;;;16.40;99.90;;;;;;5025472;28;20457;-80
2023/07/04 08:27:26;;;;;;;0.10;0.10;;;16.40;99.90;;;;;;5028910;28;20101;-79
2023/07/04 08:29:52;;;;;;;0.20;0.20;;;16.40;99.90;;;;;;5034837;28;20037;-78
2023/07/04 08:32:18;;;;;;;0.20;0.20;;;16.50;99.90;;;;;;5045157;28;20401;-78
2023/07/04 08:34:46;;;;;;;0.20;0.20;;;16.50;99.90;;;;;;5039181;28;20045;-79
2023/07/04 08:37:13;;;;;;;0.20;0.20;;;16.50;99.90;;;;;;5046439;28;20068;-78
2023/07/04 08:39:40;;;;;;;0.20;0.20;;;16.60;99.90;;;;;;5044961;28;20045;-78
2023/07/04 08:42:07;;;;;;;0.17;0.17;;;16.60;99.90;;;;;;5032848;28;20041;-78
2023/07/04 08:44:38;;;;;;;0.20;0.20;;;16.60;99.90;;;;;;5025141;28;20072;-76
2023/07/04 08:47:05;;;;;;;0.10;0.10;;;16.60;99.90;;;;;;5040343;28;20908;-78
2023/07/04 08:50:09;;;;;;;0.20;0.20;;;16.60;99.90;;;;;;5024297;28;20103;-78
2023/07/04 08:52:52;;;;;;;0.20;0.20;;;16.70;99.90;;;;;;5042165;28;21897;-79
2023/07/04 08:55:19;;;;;;;0.20;0.20;;;16.80;99.90;;;;;;5029365;28;20041;-79
2023/07/04 08:58:02;;;;;;;0.20;0.20;;;16.80;99.90;;;;;;5022612;28;20526;-78
2023/07/04 09:00:46;;;;;;;0.20;0.20;;;16.90;99.90;;;;;;5020360;28;20268;-78
2023/07/04 09:03:37;;;;;;;0.20;0.20;;;16.90;99.90;;;;;;5027876;28;20049;-78
2023/07/04 09:06:08;;;;;;;0.22;0.22;;;16.90;99.90;;;;;;5019674;28;20036;-79
2023/07/04 09:08:49;;;;;;;0.15;0.15;;;16.90;99.90;;;;;;5020532;28;20053;-78
2023/07/04 09:11:16;;;;;;;0.20;0.20;;;17.00;99.90;;;;;;5017102;28;20041;-79
2023/07/04 09:13:44;;;;;;;0.10;0.10;;;17.10;99.90;;;;;;5022971;28;20097;-78
2023/07/04 09:16:16;;;;;;;0.13;0.13;;;17.20;99.90;;;;;;5048584;28;20508;-79
2023/07/04 09:19:02;;;;;;;0.20;0.20;;;17.20;99.90;;;;;;5018370;28;20045;-78
2023/07/04 09:21:30;;;;;;;0.20;0.20;;;17.30;99.90;;;;;;5028029;28;20041;-79
2023/07/04 09:24:01;;;;;;;0.20;0.20;;;17.30;99.90;;;;;;5041865;28;20098;-79
2023/07/04 09:26:49;;;;;;;;;;;17.30;99.90;;;;;;5029008;28;20049;-79
2023/07/04 09:29:20;;;;;;;0.10;0.10;;;17.30;99.90;;;;;;5025287;28;19963;-79
2023/07/04 09:31:46;;;;;;;0.20;0.20;;;17.20;99.90;;;;;;5046443;28;20045;-79
2023/07/04 09:34:19;;;;;;;0.10;0.10;;;17.10;99.90;;;;;;5022711;28;20051;-78
2023/07/04 09:36:45;;;;;;;0.10;0.10;;;17.00;99.90;;;;;;5026558;28;20075;-80
2023/07/04 09:39:11;;;;;;;0.10;0.10;;;17.00;99.90;;;;;;5025596;28;20042;-80
2023/07/04 09:41:39;;;;;;;0.20;0.20;;;16.90;99.90;;;;;;5023598;28;20048;-80
2023/07/04 09:44:19;;;;;;;0.20;0.20;;;16.90;99.90;;;;;;5026560;28;20056;-78
2023/07/04 09:46:52;;;;;;;0.20;0.20;;;16.80;99.90;;;;;;5023439;28;20052;-80
2023/07/04 09:49:19;;;;;;;0.10;0.10;;;16.80;99.90;;;;;;5044688;28;20090;-76
2023/07/04 09:51:58;;;;;;;0.10;0.10;;;16.90;99.90;;;;;;5025625;28;20033;-80
2023/07/04 09:54:24;;;;;;;0.13;0.13;;;16.90;99.90;;;;;;5041984;28;20048;-78
2023/07/04 09:56:49;;;;;;;0.13;0.13;;;16.90;99.90;;;;;;5024991;28;20037;-78
2023/07/04 09:59:23;;;;;;;0.20;0.20;;;17.00;99.90;;;;;;5044628;28;20390;-77
2023/07/04 10:01:57;;;;;;;0.20;0.20;;;17.10;99.90;;;;;;5023493;28;20111;-79
2023/07/04 10:04:36;;;;;;;0.20;0.20;;;17.10;99.90;;;;;;5024503;28;20496;-78
2023/07/04 10:07:05;;;;;;;0.20;0.20;;;17.10;99.90;;;;;;5021065;28;20045;-78
2023/07/04 10:09:33;;;;;;;0.20;0.20;;;17.10;99.90;;;;;;5022908;28;20540;-79
2023/07/04 10:12:13;;;;;;;0.10;0.10;;;17.20;99.90;;;;;;5028748;28;20071;-77
2023/07/04 10:14:52;;;;;;;0.15;0.15;;;17.30;99.90;;;;;;5036565;28;20041;-77
2023/07/04 10:17:27;;;;;;;0.20;0.20;;;17.40;99.90;;;;;;5014856;28;20034;-78
2023/07/04 10:20:00;;;;;;;0.10;0.10;;;17.40;99.90;;;;;;5026097;28;20080;-77
2023/07/04 10:22:35;;;;;;;0.15;0.15;;;17.50;99.90;;;;;;5027989;28;20041;-77
2023/07/04 10:25:03;;;;;;;0.10;0.10;;;17.50;99.90;;;;;;5031811;28;20052;-78
2023/07/04 10:27:34;;;;;;;0.10;0.10;;;17.60;99.90;;;;;;5042713;28;20060;-77
2023/07/04 10:30:06;;;;;;;0.20;0.20;;;17.70;99.90;;;;;;5021652;28;20045;-77
2023/07/04 10:32:40;;;;;;;0.20;0.20;;;17.90;99.90;;;;;;5029846;28;20898;-77
2023/07/04 10:35:11;;;;;;;0.20;0.20;;;18.00;99.90;;;;;;5042581;28;20038;-78
2023/07/04 10:37:39;;;;;;;0.20;0.20;;;18.00;99.90;;;;;;5045684;28;20072;-78
2023/07/04 10:40:15;;;;;;;0.10;0.10;;;18.10;99.90;;;;;;5041783;28;20044;-79
2023/07/04 10:42:49;;;;;;;0.17;0.17;;;18.10;99.90;;;;;;5034266;28;20056;-77
2023/07/04 10:45:17;;;;;;;0.20;0.20;;;18.20;99.90;;;;;;5037514;28;20391;-77
2023/07/04 10:47:44;;;;;;;0.20;0.20;;;18.30;99.90;;;;;;5046391;28;20456;-78
2023/07/04 10:50:22;;;;;;;0.20;0.20;;;18.30;99.90;;;;;;5030050;28;20075;-78
2023/07/04 10:52:49;;;;;;;0.13;0.13;;;18.30;99.90;;;;;;5039726;28;20045;-77
2023/07/04 10:55:34;;;;;;;0.20;0.20;;;18.40;99.90;;;;;;5062591;28;20047;-77
2023/07/04 10:58:12;;;;;;;0.20;0.20;;;18.50;99.90;;;;;;5045929;28;20045;-77
2023/07/04 11:00:50;;;;;;;0.20;0.20;;;18.60;99.80;;;;;;5048505;28;20268;-81
2023/07/04 11:03:51;;;;;;;0.20;0.20;;;18.80;99.90;;;;;;5044335;28;20485;-77
2023/07/04 11:06:24;;;;;;;0.20;0.20;;;19.00;99.90;;;;;;5029280;28;20125;-77
2023/07/04 11:08:52;;;;;;;0.10;0.10;;;19.00;99.00;;;;;;5044457;28;20049;-76
2023/07/04 11:11:26;;;;;;;0.20;0.20;;;19.10;99.30;;;;;;5035538;28;20076;-77
2023/07/04 11:13:55;;;;;;;0.20;0.20;;;19.20;99.80;;;;;;5044731;28;20077;-77
2023/07/04 11:16:28;;;;;;;0.20;0.20;;;19.30;99.60;;;;;;5047249;28;20382;-77
2023/07/04 11:19:13;;;;;;;0.20;0.20;;;19.40;99.10;;;;;;5047366;28;20056;-77
2023/07/04 11:22:01;;;;;;;0.20;0.20;;;19.50;99.00;;;;;;5047911;28;20083;-77
2023/07/04 11:24:36;;;;;;;0.20;0.20;;;19.50;99.10;;;;;;5047950;28;20071;-78
2023/07/04 11:27:08;;;;;;;0.20;0.20;;;19.70;98.80;;;;;;5028384;28;20127;-77
2023/07/04 11:29:47;;;;;;;0.17;0.17;;;19.80;98.80;;;;;;5046768;28;20539;-78
2023/07/04 11:32:25;;;;;;;0.20;0.20;;;19.90;98.20;;;;;;5044384;28;20052;-77
2023/07/04 11:35:13;;;;;;;0.20;0.20;;;20.00;97.80;;;;;;5033728;28;20045;-77
2023/07/04 11:37:51;;;;;;;0.20;0.20;;;20.10;98.10;;;;;;5047072;28;20512;-77
2023/07/04 11:40:43;;;;;;;0.20;0.20;;;20.30;98.00;;;;;;5047070;28;20068;-77
2023/07/04 11:43:41;;;;;;;0.20;0.20;;;20.30;97.20;;;;;;5041148;28;20140;-78
2023/07/04 11:46:19;;;;;;;0.20;0.20;;;20.30;96.80;;;;;;5046932;28;20341;-77
2023/07/04 11:48:49;;;;;;;0.20;0.20;;;20.30;96.40;;;;;;5047821;28;20051;-76
2023/07/04 11:51:15;;;;;;;0.20;0.20;;;20.20;96.90;;;;;;5048040;28;20044;-76
2023/07/04 11:53:54;;;;;;;0.20;0.20;;;20.30;96.80;;;;;;5045146;28;20083;-77
2023/07/04 11:56:23;;;;;;;0.20;0.20;;;20.20;95.60;;;;;;5044730;28;20071;-76
2023/07/04 11:59:12;;;;;;;0.20;0.20;;;20.20;96.20;;;;;;5043959;28;20081;-77
2023/07/04 12:02:08;;;;;;;0.20;0.20;;;20.30;96.60;;;;;;5040171;28;20080;-77
2023/07/04 12:04:33;;;;;;;0.20;0.20;;;20.20;96.30;;;;;;5014479;28;20060;-76
2023/07/04 12:07:03;;;;;;;0.20;0.20;;;20.30;96.50;;;;;;5041074;28;20041;-77
2023/07/04 12:09:46;;;;;;;0.20;0.20;;;20.30;96.10;;;;;;5056519;28;20045;-77
2023/07/04 12:12:19;;;;;;;0.20;0.20;;;20.30;96.60;;;;;;5038468;28;20045;-82
2023/07/04 12:14:47;;;;;;;0.10;0.10;;;20.40;96.70;;;;;;5046683;28;20041;-77
2023/07/04 12:17:15;;;;;;;0.20;0.20;;;20.50;97.00;;;;;;5050953;28;20076;-77
2023/07/04 12:19:42;;;;;;;0.20;0.20;;;20.60;96.90;;;;;;5031707;28;20585;-77
2023/07/04 12:22:14;;;;;;;0.20;0.20;;;20.70;96.00;;;;;;5029452;28;20065;-77
2023/07/04 12:24:40;;;;;;;0.20;0.20;;;20.60;95.80;;;;;;5051513;28;20052;-78
2023/07/04 12:27:06;;;;;;;0.20;0.20;;;20.50;95.70;;;;;;5051703;28;20045;-77
2023/07/04 12:29:45;;;;;;;0.20;0.20;;;20.50;95.40;;;;;;5048954;28;20045;-77
2023/07/04 12:32:18;;;;;;;0.20;0.20;;;20.40;95.50;;;;;;5051986;28;20412;-78
2023/07/04 12:34:44;;;;;;;0.20;0.20;;;20.40;95.90;;;;;;5042772;28;20237;-77
2023/07/04 12:37:16;;;;;;;0.20;0.20;;;20.60;95.80;;;;;;5036643;28;20053;-77
2023/07/04 12:39:47;;;;;;;0.15;0.15;;;20.70;95.80;;;;;;5032055;28;20445;-78
2023/07/04 12:42:29;;;;;;;0.20;0.20;;;20.90;95.00;;;;;;5041071;28;20033;-77
2023/07/04 12:44:55;;;;;;;0.20;0.20;;;21.00;94.80;;;;;;5051994;28;20056;-78
2023/07/04 12:47:33;;;;;;;0.20;0.20;;;21.10;94.80;;;;;;5045778;28;20041;-77
2023/07/04 12:50:00;;;;;;;0.20;0.20;;;21.20;94.10;;;;;;5063914;28;20048;-78
2023/07/04 12:52:32;;;;;;;0.20;0.20;;;21.20;94.40;;;;;;5049229;28;20045;-77
2023/07/04 12:55:02;;;;;;;0.20;0.20;;;21.30;94.30;;;;;;5050884;28;20407;-77
2023/07/04 12:57:29;;;;;;;0.20;0.20;;;21.40;94.10;;;;;;5050260;28;20165;-78
2023/07/04 13:00:10;;;;;;;0.20;0.20;;;21.60;94.20;;;;;;5051336;28;20477;-77
2023/07/04 13:02:36;;;;;;;0.30;0.30;;;21.70;94.70;;;;;;5050838;28;20449;-78